Green Oak Township, Michigan
Current Conditions -  °F | °C
As of 12:55 AM on Sunday 23 Nov 2014 (Local Time) from KOZW Reporting Station
Overcast Overcast  
Wind Chill: 45°   Ceiling: 2400
Heat Index: 49°   Visibility: 10mi
Dew Point: 45°   Wind: 9mph
Humidity: 87%   Direction: 210°SSW
Pressure: 29.91"   Gusts: NA
Location:  42.5333°N, 83.7735°W
Report Text: KOZW 230555Z AUTO 21008KT 10SM BKN024 BKN044 OVC049 09/07 A2991 RMK AO2 T00930072 10095 20056 400951062
Loading
Personal Weather Stations






























Interactive Weather Map New forecast layout! Learn more

10-Day Weather Forecast

Advertisements
Track Severe Weather on mobile